sensor_id;sensor_type;location;lat;lon;timestamp;temperature;humidity
30097;DHT22;16915;51.466;3.610;2023-03-08T00:00:01;1.50;99.90
30097;DHT22;16915;51.466;3.610;2023-03-08T00:02:26;1.70;99.90
30097;DHT22;16915;51.466;3.610;2023-03-08T00:04:55;1.70;99.90
30097;DHT22;16915;51.466;3.610;2023-03-08T00:07:22;1.80;99.90
30097;DHT22;16915;51.466;3.610;2023-03-08T00:09:48;1.80;99.90
30097;DHT22;16915;51.466;3.610;2023-03-08T00:12:13;1.90;99.90
30097;DHT22;16915;51.466;3.610;2023-03-08T00:14:39;1.90;99.90
30097;DHT22;16915;51.466;3.610;2023-03-08T00:17:05;1.90;99.90
30097;DHT22;16915;51.466;3.610;2023-03-08T00:19:31;1.90;99.90
30097;DHT22;16915;51.466;3.610;2023-03-08T00:21:56;1.90;99.90
30097;DHT22;16915;51.466;3.610;2023-03-08T00:24:22;1.90;99.90
30097;DHT22;16915;51.466;3.610;2023-03-08T00:26:48;1.90;99.90
30097;DHT22;16915;51.466;3.610;2023-03-08T00:29:14;2.00;99.90
30097;DHT22;16915;51.466;3.610;2023-03-08T00:31:40;2.00;99.90
30097;DHT22;16915;51.466;3.610;2023-03-08T00:34:05;2.00;99.90
30097;DHT22;16915;51.466;3.610;2023-03-08T00:36:31;2.00;99.90
30097;DHT22;16915;51.466;3.610;2023-03-08T00:38:56;2.10;99.90
30097;DHT22;16915;51.466;3.610;2023-03-08T00:41:22;2.10;99.90
30097;DHT22;16915;51.466;3.610;2023-03-08T00:43:48;2.10;99.90
30097;DHT22;16915;51.466;3.610;2023-03-08T00:46:14;2.10;99.90
30097;DHT22;16915;51.466;3.610;2023-03-08T00:48:40;2.10;99.90
30097;DHT22;16915;51.466;3.610;2023-03-08T00:51:06;2.10;99.90
30097;DHT22;16915;51.466;3.610;2023-03-08T00:53:32;2.20;99.90
30097;DHT22;16915;51.466;3.610;2023-03-08T00:55:58;2.20;99.90
30097;DHT22;16915;51.466;3.610;2023-03-08T00:58:27;2.20;99.90
30097;DHT22;16915;51.466;3.610;2023-03-08T01:00:53;2.20;99.90
30097;DHT22;16915;51.466;3.610;2023-03-08T01:03:19;2.20;99.90
30097;DHT22;16915;51.466;3.610;2023-03-08T01:05:49;2.10;99.90
30097;DHT22;16915;51.466;3.610;2023-03-08T01:08:16;2.20;99.90
30097;DHT22;16915;51.466;3.610;2023-03-08T01:10:53;2.20;99.90
30097;DHT22;16915;51.466;3.610;2023-03-08T01:13:21;2.20;99.90
30097;DHT22;16915;51.466;3.610;2023-03-08T01:15:46;2.20;99.90
30097;DHT22;16915;51.466;3.610;2023-03-08T01:18:12;2.20;99.90
30097;DHT22;16915;51.466;3.610;2023-03-08T01:20:38;2.20;99.90
30097;DHT22;16915;51.466;3.610;2023-03-08T01:23:03;2.20;99.90
30097;DHT22;16915;51.466;3.610;2023-03-08T01:25:29;2.20;99.90
30097;DHT22;16915;51.466;3.610;2023-03-08T01:27:55;2.20;99.90
30097;DHT22;16915;51.466;3.610;2023-03-08T01:30:20;2.20;99.90
30097;DHT22;16915;51.466;3.610;2023-03-08T01:32:46;2.20;99.90
30097;DHT22;16915;51.466;3.610;2023-03-08T01:35:12;2.10;99.90
30097;DHT22;16915;51.466;3.610;2023-03-08T01:37:37;2.20;99.90
30097;DHT22;16915;51.466;3.610;2023-03-08T01:40:04;2.10;99.90
30097;DHT22;16915;51.466;3.610;2023-03-08T01:42:30;2.10;99.90
30097;DHT22;16915;51.466;3.610;2023-03-08T01:45:00;2.10;99.90
30097;DHT22;16915;51.466;3.610;2023-03-08T01:47:28;2.10;99.90
30097;DHT22;16915;51.466;3.610;2023-03-08T01:50:01;2.10;99.90
30097;DHT22;16915;51.466;3.610;2023-03-08T01:52:37;2.10;99.90
30097;DHT22;16915;51.466;3.610;2023-03-08T01:55:06;2.10;99.90
30097;DHT22;16915;51.466;3.610;2023-03-08T01:57:38;2.10;99.90
30097;DHT22;16915;51.466;3.610;2023-03-08T02:02:51;2.00;99.90
30097;DHT22;16915;51.466;3.610;2023-03-08T02:05:20;2.00;99.90
30097;DHT22;16915;51.466;3.610;2023-03-08T02:07:46;1.90;99.90
30097;DHT22;16915;51.466;3.610;2023-03-08T02:10:12;1.90;99.90
30097;DHT22;16915;51.466;3.610;2023-03-08T02:12:38;1.90;99.90
30097;DHT22;16915;51.466;3.610;2023-03-08T02:15:06;1.90;99.90
30097;DHT22;16915;51.466;3.610;2023-03-08T02:17:37;1.90;99.90
30097;DHT22;16915;51.466;3.610;2023-03-08T02:20:09;1.90;99.90
30097;DHT22;16915;51.466;3.610;2023-03-08T02:22:40;2.00;99.90
30097;DHT22;16915;51.466;3.610;2023-03-08T02:25:25;2.00;99.90
30097;DHT22;16915;51.466;3.610;2023-03-08T02:27:52;2.00;99.90
30097;DHT22;16915;51.466;3.610;2023-03-08T02:30:29;2.00;99.90
30097;DHT22;16915;51.466;3.610;2023-03-08T02:32:55;2.10;99.90
30097;DHT22;16915;51.466;3.610;2023-03-08T02:35:21;2.10;99.90
30097;DHT22;16915;51.466;3.610;2023-03-08T02:37:47;2.10;99.90
30097;DHT22;16915;51.466;3.610;2023-03-08T02:40:13;2.10;99.90
30097;DHT22;16915;51.466;3.610;2023-03-08T02:42:38;2.10;99.90
30097;DHT22;16915;51.466;3.610;2023-03-08T02:45:05;2.10;99.90
30097;DHT22;16915;51.466;3.610;2023-03-08T02:47:31;2.10;99.90
30097;DHT22;16915;51.466;3.610;2023-03-08T02:49:57;2.10;99.90
30097;DHT22;16915;51.466;3.610;2023-03-08T02:52:22;2.10;99.90
30097;DHT22;16915;51.466;3.610;2023-03-08T02:54:48;2.20;99.90
30097;DHT22;16915;51.466;3.610;2023-03-08T02:57:13;2.20;99.90
30097;DHT22;16915;51.466;3.610;2023-03-08T02:59:39;2.20;99.90
30097;DHT22;16915;51.466;3.610;2023-03-08T03:02:04;2.20;99.90
30097;DHT22;16915;51.466;3.610;2023-03-08T03:04:31;2.20;99.90
30097;DHT22;16915;51.466;3.610;2023-03-08T03:06:57;2.20;99.90
30097;DHT22;16915;51.466;3.610;2023-03-08T03:09:23;2.30;99.90
30097;DHT22;16915;51.466;3.610;2023-03-08T03:11:49;2.30;99.90
30097;DHT22;16915;51.466;3.610;2023-03-08T03:14:14;2.30;99.90
30097;DHT22;16915;51.466;3.610;2023-03-08T03:16:40;2.30;99.90
30097;DHT22;16915;51.466;3.610;2023-03-08T03:19:05;2.30;99.90
30097;DHT22;16915;51.466;3.610;2023-03-08T03:21:31;2.30;99.90
30097;DHT22;16915;51.466;3.610;2023-03-08T03:23:57;2.30;99.90
30097;DHT22;16915;51.466;3.610;2023-03-08T03:26:23;2.30;99.90
30097;DHT22;16915;51.466;3.610;2023-03-08T03:28:49;2.30;99.90
30097;DHT22;16915;51.466;3.610;2023-03-08T03:31:19;2.30;99.90
30097;DHT22;16915;51.466;3.610;2023-03-08T03:33:46;2.30;99.90
30097;DHT22;16915;51.466;3.610;2023-03-08T03:36:14;2.30;99.90
30097;DHT22;16915;51.466;3.610;2023-03-08T03:38:40;2.30;99.90
30097;DHT22;16915;51.466;3.610;2023-03-08T03:41:11;2.30;99.90
30097;DHT22;16915;51.466;3.610;2023-03-08T03:43:37;2.30;99.90
30097;DHT22;16915;51.466;3.610;2023-03-08T03:46:05;2.40;99.90
30097;DHT22;16915;51.466;3.610;2023-03-08T03:48:33;2.30;99.90
30097;DHT22;16915;51.466;3.610;2023-03-08T03:51:04;2.40;99.90
30097;DHT22;16915;51.466;3.610;2023-03-08T03:53:32;2.30;99.90
30097;DHT22;16915;51.466;3.610;2023-03-08T03:56:06;2.30;99.90
30097;DHT22;16915;51.466;3.610;2023-03-08T03:58:32;2.40;99.90
30097;DHT22;16915;51.466;3.610;2023-03-08T04:00:58;2.30;99.90
30097;DHT22;16915;51.466;3.610;2023-03-08T04:03:25;2.30;99.90
30097;DHT22;16915;51.466;3.610;2023-03-08T04:05:50;2.30;99.90
30097;DHT22;16915;51.466;3.610;2023-03-08T04:08:16;2.30;99.90
30097;DHT22;16915;51.466;3.610;2023-03-08T04:10:42;2.30;99.90
30097;DHT22;16915;51.466;3.610;2023-03-08T04:13:10;2.30;99.90
30097;DHT22;16915;51.466;3.610;2023-03-08T04:15:36;2.20;99.90
30097;DHT22;16915;51.466;3.610;2023-03-08T04:18:01;2.20;99.90
30097;DHT22;16915;51.466;3.610;2023-03-08T04:20:27;2.20;99.90
30097;DHT22;16915;51.466;3.610;2023-03-08T04:22:53;2.10;99.90
30097;DHT22;16915;51.466;3.610;2023-03-08T04:25:18;2.10;99.90
30097;DHT22;16915;51.466;3.610;2023-03-08T04:27:44;2.00;99.90
30097;DHT22;16915;51.466;3.610;2023-03-08T04:30:11;2.00;99.90
30097;DHT22;16915;51.466;3.610;2023-03-08T04:32:36;2.00;99.90
30097;DHT22;16915;51.466;3.610;2023-03-08T04:35:02;2.00;99.90
30097;DHT22;16915;51.466;3.610;2023-03-08T04:37:28;1.90;99.90
30097;DHT22;16915;51.466;3.610;2023-03-08T04:39:54;1.90;99.90
30097;DHT22;16915;51.466;3.610;2023-03-08T04:42:20;1.90;99.90
30097;DHT22;16915;51.466;3.610;2023-03-08T04:44:46;1.80;99.90
30097;DHT22;16915;51.466;3.610;2023-03-08T04:47:11;1.80;99.90
30097;DHT22;16915;51.466;3.610;2023-03-08T04:49:37;1.70;99.90
30097;DHT22;16915;51.466;3.610;2023-03-08T04:52:02;1.70;99.90
30097;DHT22;16915;51.466;3.610;2023-03-08T04:54:28;1.60;99.90
30097;DHT22;16915;51.466;3.610;2023-03-08T04:56:53;1.70;99.90
30097;DHT22;16915;51.466;3.610;2023-03-08T04:59:19;1.60;99.90
30097;DHT22;16915;51.466;3.610;2023-03-08T05:01:45;1.60;99.90
30097;DHT22;16915;51.466;3.610;2023-03-08T05:04:10;1.50;99.90
30097;DHT22;16915;51.466;3.610;2023-03-08T05:06:36;1.40;99.90
30097;DHT22;16915;51.466;3.610;2023-03-08T05:09:02;1.40;99.90
30097;DHT22;16915;51.466;3.610;2023-03-08T05:11:28;1.30;99.90
30097;DHT22;16915;51.466;3.610;2023-03-08T05:13:56;1.30;99.90
30097;DHT22;16915;51.466;3.610;2023-03-08T05:16:22;1.20;99.90
30097;DHT22;16915;51.466;3.610;2023-03-08T05:18:48;1.20;99.90
30097;DHT22;16915;51.466;3.610;2023-03-08T05:21:17;1.10;99.90
30097;DHT22;16915;51.466;3.610;2023-03-08T05:23:43;1.10;99.90
30097;DHT22;16915;51.466;3.610;2023-03-08T05:26:11;1.00;99.90
30097;DHT22;16915;51.466;3.610;2023-03-08T05:28:37;1.00;99.90
30097;DHT22;16915;51.466;3.610;2023-03-08T05:31:09;1.00;99.90
30097;DHT22;16915;51.466;3.610;2023-03-08T05:33:35;1.00;99.90
30097;DHT22;16915;51.466;3.610;2023-03-08T05:36:02;1.00;99.90
30097;DHT22;16915;51.466;3.610;2023-03-08T05:38:28;0.90;99.90
30097;DHT22;16915;51.466;3.610;2023-03-08T05:40:54;0.90;99.90
30097;DHT22;16915;51.466;3.610;2023-03-08T05:43:20;0.80;99.90
30097;DHT22;16915;51.466;3.610;2023-03-08T05:46:10;0.80;99.90
30097;DHT22;16915;51.466;3.610;2023-03-08T05:48:36;0.80;99.90
30097;DHT22;16915;51.466;3.610;2023-03-08T05:51:10;0.80;99.90
30097;DHT22;16915;51.466;3.610;2023-03-08T05:53:36;0.80;99.90
30097;DHT22;16915;51.466;3.610;2023-03-08T05:58:40;0.80;99.90
30097;DHT22;16915;51.466;3.610;2023-03-08T06:01:20;0.80;99.90
30097;DHT22;16915;51.466;3.610;2023-03-08T06:03:54;0.70;99.90
30097;DHT22;16915;51.466;3.610;2023-03-08T06:06:22;0.70;99.90
30097;DHT22;16915;51.466;3.610;2023-03-08T06:08:48;0.70;99.90
30097;DHT22;16915;51.466;3.610;2023-03-08T06:11:14;0.70;99.90
30097;DHT22;16915;51.466;3.610;2023-03-08T06:13:40;0.70;99.90
30097;DHT22;16915;51.466;3.610;2023-03-08T06:16:07;0.70;99.90
30097;DHT22;16915;51.466;3.610;2023-03-08T06:18:35;0.70;99.90
30097;DHT22;16915;51.466;3.610;2023-03-08T06:21:15;0.60;99.90
30097;DHT22;16915;51.466;3.610;2023-03-08T06:23:41;0.60;99.90
30097;DHT22;16915;51.466;3.610;2023-03-08T06:26:08;0.60;99.90
30097;DHT22;16915;51.466;3.610;2023-03-08T06:28:34;0.60;99.90
30097;DHT22;16915;51.466;3.610;2023-03-08T06:30:59;0.50;99.90
30097;DHT22;16915;51.466;3.610;2023-03-08T06:33:27;0.50;99.90
30097;DHT22;16915;51.466;3.610;2023-03-08T06:35:58;0.50;99.90
30097;DHT22;16915;51.466;3.610;2023-03-08T06:38:25;0.50;99.90
30097;DHT22;16915;51.466;3.610;2023-03-08T06:40:51;0.50;99.90
30097;DHT22;16915;51.466;3.610;2023-03-08T06:43:17;0.50;99.90
30097;DHT22;16915;51.466;3.610;2023-03-08T06:45:43;0.50;99.90
30097;DHT22;16915;51.466;3.610;2023-03-08T06:48:08;0.50;99.90
30097;DHT22;16915;51.466;3.610;2023-03-08T06:50:34;0.50;99.90
30097;DHT22;16915;51.466;3.610;2023-03-08T06:53:00;0.50;99.90
30097;DHT22;16915;51.466;3.610;2023-03-08T06:55:25;0.50;99.90
30097;DHT22;16915;51.466;3.610;2023-03-08T06:57:51;0.50;99.90
30097;DHT22;16915;51.466;3.610;2023-03-08T07:00:17;0.50;99.90
30097;DHT22;16915;51.466;3.610;2023-03-08T07:02:43;0.50;99.90
30097;DHT22;16915;51.466;3.610;2023-03-08T07:05:09;0.50;99.90
30097;DHT22;16915;51.466;3.610;2023-03-08T07:07:34;0.50;99.90
30097;DHT22;16915;51.466;3.610;2023-03-08T07:10:02;0.50;99.90
30097;DHT22;16915;51.466;3.610;2023-03-08T07:12:28;0.50;99.90
30097;DHT22;16915;51.466;3.610;2023-03-08T07:14:56;0.50;99.90
30097;DHT22;16915;51.466;3.610;2023-03-08T07:17:22;0.50;99.90
30097;DHT22;16915;51.466;3.610;2023-03-08T07:19:48;0.50;99.90
30097;DHT22;16915;51.466;3.610;2023-03-08T07:22:14;0.50;99.90
30097;DHT22;16915;51.466;3.610;2023-03-08T07:24:39;0.50;99.90
30097;DHT22;16915;51.466;3.610;2023-03-08T07:27:05;0.50;99.90
30097;DHT22;16915;51.466;3.610;2023-03-08T07:29:30;0.50;99.90
30097;DHT22;16915;51.466;3.610;2023-03-08T07:31:56;0.50;99.90
30097;DHT22;16915;51.466;3.610;2023-03-08T07:34:21;0.50;99.90
30097;DHT22;16915;51.466;3.610;2023-03-08T07:36:47;0.50;99.90
30097;DHT22;16915;51.466;3.610;2023-03-08T07:39:15;0.50;99.90
30097;DHT22;16915;51.466;3.610;2023-03-08T07:41:41;0.50;99.90
30097;DHT22;16915;51.466;3.610;2023-03-08T07:44:07;0.60;99.90
30097;DHT22;16915;51.466;3.610;2023-03-08T07:46:32;0.60;99.90
30097;DHT22;16915;51.466;3.610;2023-03-08T07:48:58;0.60;99.90
30097;DHT22;16915;51.466;3.610;2023-03-08T07:51:24;0.60;99.90
30097;DHT22;16915;51.466;3.610;2023-03-08T07:53:51;0.50;99.90
30097;DHT22;16915;51.466;3.610;2023-03-08T07:56:16;0.50;99.90
30097;DHT22;16915;51.466;3.610;2023-03-08T07:58:42;0.60;99.90
30097;DHT22;16915;51.466;3.610;2023-03-08T08:01:09;0.60;99.90
30097;DHT22;16915;51.466;3.610;2023-03-08T08:03:35;0.50;99.90
30097;DHT22;16915;51.466;3.610;2023-03-08T08:06:02;0.60;99.90
30097;DHT22;16915;51.466;3.610;2023-03-08T08:08:28;0.60;99.90
30097;DHT22;16915;51.466;3.610;2023-03-08T08:10:54;0.60;99.90
30097;DHT22;16915;51.466;3.610;2023-03-08T08:13:19;0.60;99.90
30097;DHT22;16915;51.466;3.610;2023-03-08T08:15:45;0.60;99.90
30097;DHT22;16915;51.466;3.610;2023-03-08T08:18:11;0.60;99.90
30097;DHT22;16915;51.466;3.610;2023-03-08T08:20:36;0.60;99.90
30097;DHT22;16915;51.466;3.610;2023-03-08T08:23:04;0.60;99.90
30097;DHT22;16915;51.466;3.610;2023-03-08T08:25:31;0.60;99.90
30097;DHT22;16915;51.466;3.610;2023-03-08T08:27:56;0.60;99.90
30097;DHT22;16915;51.466;3.610;2023-03-08T08:30:22;0.60;99.90
30097;DHT22;16915;51.466;3.610;2023-03-08T08:32:48;0.60;99.90
30097;DHT22;16915;51.466;3.610;2023-03-08T08:35:13;0.60;99.90
30097;DHT22;16915;51.466;3.610;2023-03-08T08:37:39;0.70;99.90
30097;DHT22;16915;51.466;3.610;2023-03-08T08:40:05;0.70;99.90
30097;DHT22;16915;51.466;3.610;2023-03-08T08:42:34;0.70;99.90
30097;DHT22;16915;51.466;3.610;2023-03-08T08:45:00;0.80;99.90
30097;DHT22;16915;51.466;3.610;2023-03-08T08:47:27;0.80;99.90
30097;DHT22;16915;51.466;3.610;2023-03-08T08:49:53;0.80;99.90
30097;DHT22;16915;51.466;3.610;2023-03-08T08:52:18;0.80;99.90
30097;DHT22;16915;51.466;3.610;2023-03-08T08:54:44;0.80;99.90
30097;DHT22;16915;51.466;3.610;2023-03-08T08:57:10;0.90;99.90
30097;DHT22;16915;51.466;3.610;2023-03-08T08:59:35;0.80;99.90
30097;DHT22;16915;51.466;3.610;2023-03-08T09:02:02;0.90;99.90
30097;DHT22;16915;51.466;3.610;2023-03-08T09:04:28;0.90;99.90
30097;DHT22;16915;51.466;3.610;2023-03-08T09:06:53;0.90;99.90
30097;DHT22;16915;51.466;3.610;2023-03-08T09:09:20;1.00;99.90
30097;DHT22;16915;51.466;3.610;2023-03-08T09:11:45;1.00;99.90
30097;DHT22;16915;51.466;3.610;2023-03-08T09:14:12;1.00;99.90
30097;DHT22;16915;51.466;3.610;2023-03-08T09:16:38;1.00;99.90
30097;DHT22;16915;51.466;3.610;2023-03-08T09:19:04;1.00;99.90
30097;DHT22;16915;51.466;3.610;2023-03-08T09:21:31;1.00;99.90
30097;DHT22;16915;51.466;3.610;2023-03-08T09:24:02;1.00;99.90
30097;DHT22;16915;51.466;3.610;2023-03-08T09:26:32;1.00;99.90
30097;DHT22;16915;51.466;3.610;2023-03-08T09:28:59;1.00;99.90
30097;DHT22;16915;51.466;3.610;2023-03-08T09:31:29;1.00;99.90
30097;DHT22;16915;51.466;3.610;2023-03-08T09:33:55;1.10;99.90
30097;DHT22;16915;51.466;3.610;2023-03-08T09:36:20;1.10;99.90
30097;DHT22;16915;51.466;3.610;2023-03-08T09:38:47;1.10;99.90
30097;DHT22;16915;51.466;3.610;2023-03-08T09:46:43;1.20;99.90
30097;DHT22;16915;51.466;3.610;2023-03-08T09:49:18;1.20;99.90
30097;DHT22;16915;51.466;3.610;2023-03-08T09:51:50;1.30;99.90
30097;DHT22;16915;51.466;3.610;2023-03-08T09:54:20;1.30;99.90
30097;DHT22;16915;51.466;3.610;2023-03-08T09:56:49;1.30;99.90
30097;DHT22;16915;51.466;3.610;2023-03-08T10:13:06;1.50;99.90
30097;DHT22;16915;51.466;3.610;2023-03-08T10:15:41;1.60;99.90
30097;DHT22;16915;51.466;3.610;2023-03-08T10:21:25;1.60;99.90
30097;DHT22;16915;51.466;3.610;2023-03-08T10:26:32;1.70;99.90
30097;DHT22;16915;51.466;3.610;2023-03-08T10:28:58;1.80;99.90
30097;DHT22;16915;51.466;3.610;2023-03-08T10:31:28;1.80;99.90
30097;DHT22;16915;51.466;3.610;2023-03-08T10:36:26;2.20;99.90
30097;DHT22;16915;51.466;3.610;2023-03-08T10:39:07;2.30;99.90
30097;DHT22;16915;51.466;3.610;2023-03-08T10:41:43;2.40;99.90
30097;DHT22;16915;51.466;3.610;2023-03-08T10:44:14;2.40;99.90
30097;DHT22;16915;51.466;3.610;2023-03-08T10:46:48;2.50;99.90
30097;DHT22;16915;51.466;3.610;2023-03-08T10:49:18;2.50;99.90
30097;DHT22;16915;51.466;3.610;2023-03-08T10:52:16;2.50;99.90
30097;DHT22;16915;51.466;3.610;2023-03-08T10:54:45;2.50;99.90
30097;DHT22;16915;51.466;3.610;2023-03-08T10:57:18;2.50;99.90
30097;DHT22;16915;51.466;3.610;2023-03-08T10:59:48;2.30;99.90
30097;DHT22;16915;51.466;3.610;2023-03-08T11:02:16;2.30;99.90
30097;DHT22;16915;51.466;3.610;2023-03-08T11:04:57;2.30;99.90
30097;DHT22;16915;51.466;3.610;2023-03-08T11:07:29;2.30;99.90
30097;DHT22;16915;51.466;3.610;2023-03-08T11:10:16;2.40;99.90
30097;DHT22;16915;51.466;3.610;2023-03-08T11:12:43;2.40;99.90
30097;DHT22;16915;51.466;3.610;2023-03-08T11:15:17;2.50;99.90
30097;DHT22;16915;51.466;3.610;2023-03-08T11:18:27;2.50;99.90
30097;DHT22;16915;51.466;3.610;2023-03-08T11:21:02;2.50;99.90
30097;DHT22;16915;51.466;3.610;2023-03-08T11:23:46;2.50;99.90
30097;DHT22;16915;51.466;3.610;2023-03-08T11:32:10;2.50;99.90
30097;DHT22;16915;51.466;3.610;2023-03-08T11:37:43;2.70;99.90
30097;DHT22;16915;51.466;3.610;2023-03-08T11:40:29;2.70;99.90
30097;DHT22;16915;51.466;3.610;2023-03-08T11:46:13;2.70;99.90
30097;DHT22;16915;51.466;3.610;2023-03-08T11:56:58;2.80;99.90
30097;DHT22;16915;51.466;3.610;2023-03-08T12:02:03;2.80;99.90
30097;DHT22;16915;51.466;3.610;2023-03-08T12:04:55;2.70;99.90
30097;DHT22;16915;51.466;3.610;2023-03-08T12:07:35;2.70;99.90
30097;DHT22;16915;51.466;3.610;2023-03-08T12:13:05;2.90;99.90
30097;DHT22;16915;51.466;3.610;2023-03-08T12:15:41;2.80;99.90
30097;DHT22;16915;51.466;3.610;2023-03-08T12:18:19;3.00;99.90
30097;DHT22;16915;51.466;3.610;2023-03-08T12:20:47;3.00;99.90
30097;DHT22;16915;51.466;3.610;2023-03-08T12:23:33;3.10;99.90
30097;DHT22;16915;51.466;3.610;2023-03-08T12:26:20;3.10;99.90
30097;DHT22;16915;51.466;3.610;2023-03-08T12:28:55;3.10;99.90
30097;DHT22;16915;51.466;3.610;2023-03-08T12:33:53;3.00;99.90
30097;DHT22;16915;51.466;3.610;2023-03-08T12:36:19;2.90;99.90
30097;DHT22;16915;51.466;3.610;2023-03-08T12:38:49;3.00;99.90
30097;DHT22;16915;51.466;3.610;2023-03-08T12:41:27;3.00;99.90
30097;DHT22;16915;51.466;3.610;2023-03-08T12:46:25;3.10;99.90
30097;DHT22;16915;51.466;3.610;2023-03-08T12:48:51;3.00;99.90
30097;DHT22;16915;51.466;3.610;2023-03-08T12:51:24;3.00;99.90
30097;DHT22;16915;51.466;3.610;2023-03-08T12:53:58;2.90;99.90
30097;DHT22;16915;51.466;3.610;2023-03-08T12:56:31;3.00;99.90
30097;DHT22;16915;51.466;3.610;2023-03-08T13:01:42;2.90;99.90
30097;DHT22;16915;51.466;3.610;2023-03-08T13:04:33;2.90;99.90
30097;DHT22;16915;51.466;3.610;2023-03-08T13:07:20;2.80;99.90
30097;DHT22;16915;51.466;3.610;2023-03-08T13:09:54;2.80;99.90
30097;DHT22;16915;51.466;3.610;2023-03-08T13:12:37;2.80;99.90
30097;DHT22;16915;51.466;3.610;2023-03-08T13:17:38;2.80;99.90
30097;DHT22;16915;51.466;3.610;2023-03-08T13:20:21;2.80;99.90
30097;DHT22;16915;51.466;3.610;2023-03-08T13:28:20;3.10;99.90
30097;DHT22;16915;51.466;3.610;2023-03-08T13:33:23;3.00;99.90
30097;DHT22;16915;51.466;3.610;2023-03-08T13:36:13;3.00;99.90
30097;DHT22;16915;51.466;3.610;2023-03-08T13:38:40;3.00;99.90
30097;DHT22;16915;51.466;3.610;2023-03-08T13:41:05;3.00;99.90
30097;DHT22;16915;51.466;3.610;2023-03-08T13:43:33;3.00;99.90
30097;DHT22;16915;51.466;3.610;2023-03-08T13:46:01;3.00;99.90
30097;DHT22;16915;51.466;3.610;2023-03-08T13:48:32;3.00;99.90
30097;DHT22;16915;51.466;3.610;2023-03-08T13:50:59;2.90;99.90
30097;DHT22;16915;51.466;3.610;2023-03-08T13:53:31;2.90;99.90
30097;DHT22;16915;51.466;3.610;2023-03-08T13:56:00;2.80;99.90
30097;DHT22;16915;51.466;3.610;2023-03-08T13:58:40;2.80;99.90
30097;DHT22;16915;51.466;3.610;2023-03-08T14:01:12;2.70;99.90
30097;DHT22;16915;51.466;3.610;2023-03-08T14:03:39;2.70;99.90
30097;DHT22;16915;51.466;3.610;2023-03-08T14:06:25;2.70;99.90
30097;DHT22;16915;51.466;3.610;2023-03-08T14:08:53;2.70;99.90
30097;DHT22;16915;51.466;3.610;2023-03-08T14:11:28;2.70;99.90
30097;DHT22;16915;51.466;3.610;2023-03-08T14:13:56;2.70;99.90
30097;DHT22;16915;51.466;3.610;2023-03-08T14:16:32;2.70;99.90
30097;DHT22;16915;51.466;3.610;2023-03-08T14:18:59;2.70;99.90
30097;DHT22;16915;51.466;3.610;2023-03-08T14:21:32;2.70;99.90
30097;DHT22;16915;51.466;3.610;2023-03-08T14:24:00;2.70;99.90
30097;DHT22;16915;51.466;3.610;2023-03-08T14:26:32;2.80;99.90
30097;DHT22;16915;51.466;3.610;2023-03-08T14:29:23;2.80;99.90
30097;DHT22;16915;51.466;3.610;2023-03-08T14:37:23;3.00;99.90
30097;DHT22;16915;51.466;3.610;2023-03-08T14:39:55;3.10;99.90
30097;DHT22;16915;51.466;3.610;2023-03-08T14:43:00;3.20;99.90
30097;DHT22;16915;51.466;3.610;2023-03-08T14:45:40;3.10;99.90
30097;DHT22;16915;51.466;3.610;2023-03-08T14:50:55;3.00;99.90
30097;DHT22;16915;51.466;3.610;2023-03-08T14:53:37;2.90;99.90
30097;DHT22;16915;51.466;3.610;2023-03-08T14:56:11;2.90;99.90
30097;DHT22;16915;51.466;3.610;2023-03-08T14:58:41;2.90;99.90
30097;DHT22;16915;51.466;3.610;2023-03-08T15:01:07;2.90;99.90
30097;DHT22;16915;51.466;3.610;2023-03-08T15:03:33;2.80;99.90
30097;DHT22;16915;51.466;3.610;2023-03-08T15:06:06;2.80;99.90
30097;DHT22;16915;51.466;3.610;2023-03-08T15:08:34;2.80;99.90
30097;DHT22;16915;51.466;3.610;2023-03-08T15:11:00;2.80;99.90
30097;DHT22;16915;51.466;3.610;2023-03-08T15:13:26;2.70;99.90
30097;DHT22;16915;51.466;3.610;2023-03-08T15:15:51;2.70;99.90
30097;DHT22;16915;51.466;3.610;2023-03-08T15:18:17;2.70;99.90
30097;DHT22;16915;51.466;3.610;2023-03-08T15:20:45;2.70;99.90
30097;DHT22;16915;51.466;3.610;2023-03-08T15:23:20;2.60;99.90
30097;DHT22;16915;51.466;3.610;2023-03-08T15:25:46;2.60;99.90
30097;DHT22;16915;51.466;3.610;2023-03-08T15:28:13;2.60;99.90
30097;DHT22;16915;51.466;3.610;2023-03-08T15:30:39;2.60;99.90
30097;DHT22;16915;51.466;3.610;2023-03-08T15:33:05;2.60;99.90
30097;DHT22;16915;51.466;3.610;2023-03-08T15:35:31;2.60;99.90
30097;DHT22;16915;51.466;3.610;2023-03-08T15:37:56;2.60;99.90
30097;DHT22;16915;51.466;3.610;2023-03-08T15:40:30;2.70;99.90
30097;DHT22;16915;51.466;3.610;2023-03-08T15:42:56;2.70;99.90
30097;DHT22;16915;51.466;3.610;2023-03-08T15:45:22;2.70;99.90
30097;DHT22;16915;51.466;3.610;2023-03-08T15:48:02;2.70;99.90
30097;DHT22;16915;51.466;3.610;2023-03-08T15:50:29;2.70;99.90
30097;DHT22;16915;51.466;3.610;2023-03-08T15:52:55;2.70;99.90
30097;DHT22;16915;51.466;3.610;2023-03-08T15:55:23;2.70;99.90
30097;DHT22;16915;51.466;3.610;2023-03-08T15:57:49;2.60;99.90
30097;DHT22;16915;51.466;3.610;2023-03-08T16:00:17;2.60;99.90
30097;DHT22;16915;51.466;3.610;2023-03-08T16:02:43;2.60;99.90
30097;DHT22;16915;51.466;3.610;2023-03-08T16:05:11;2.60;99.90
30097;DHT22;16915;51.466;3.610;2023-03-08T16:07:37;2.60;99.90
30097;DHT22;16915;51.466;3.610;2023-03-08T16:10:04;2.50;99.90
30097;DHT22;16915;51.466;3.610;2023-03-08T16:12:30;2.60;99.90
30097;DHT22;16915;51.466;3.610;2023-03-08T16:14:55;2.60;99.90
30097;DHT22;16915;51.466;3.610;2023-03-08T16:17:24;2.60;99.90
30097;DHT22;16915;51.466;3.610;2023-03-08T16:19:50;2.50;99.90
30097;DHT22;16915;51.466;3.610;2023-03-08T16:22:17;2.50;99.90
30097;DHT22;16915;51.466;3.610;2023-03-08T16:24:42;2.50;99.90
30097;DHT22;16915;51.466;3.610;2023-03-08T16:27:08;2.50;99.90
30097;DHT22;16915;51.466;3.610;2023-03-08T16:29:34;2.50;99.90
30097;DHT22;16915;51.466;3.610;2023-03-08T16:32:00;2.50;99.90
30097;DHT22;16915;51.466;3.610;2023-03-08T16:34:26;2.40;99.90
30097;DHT22;16915;51.466;3.610;2023-03-08T16:36:53;2.40;99.90
30097;DHT22;16915;51.466;3.610;2023-03-08T16:39:19;2.30;99.90
30097;DHT22;16915;51.466;3.610;2023-03-08T16:41:45;2.40;99.90
30097;DHT22;16915;51.466;3.610;2023-03-08T16:44:24;2.40;99.90
30097;DHT22;16915;51.466;3.610;2023-03-08T16:46:50;2.30;99.90
30097;DHT22;16915;51.466;3.610;2023-03-08T16:49:17;2.30;99.90
30097;DHT22;16915;51.466;3.610;2023-03-08T16:51:43;2.40;99.90
30097;DHT22;16915;51.466;3.610;2023-03-08T16:54:10;2.30;99.90
30097;DHT22;16915;51.466;3.610;2023-03-08T16:56:36;2.30;99.90
30097;DHT22;16915;51.466;3.610;2023-03-08T16:59:02;2.30;99.90
30097;DHT22;16915;51.466;3.610;2023-03-08T17:01:28;2.20;99.90
30097;DHT22;16915;51.466;3.610;2023-03-08T17:03:55;2.20;99.90
30097;DHT22;16915;51.466;3.610;2023-03-08T17:06:22;2.20;99.90
30097;DHT22;16915;51.466;3.610;2023-03-08T17:08:48;2.20;99.90
30097;DHT22;16915;51.466;3.610;2023-03-08T17:11:25;2.10;99.90
30097;DHT22;16915;51.466;3.610;2023-03-08T17:13:53;2.10;99.90
30097;DHT22;16915;51.466;3.610;2023-03-08T17:16:21;2.10;99.90
30097;DHT22;16915;51.466;3.610;2023-03-08T17:18:48;2.10;99.90